createdAt,value
2018-11-14T00:00:36.069Z,78023.98
2018-11-14T00:03:04.745Z,78029.98
2018-11-14T00:05:32.950Z,78032.98
2018-11-14T00:08:00.765Z,78035.99
2018-11-14T00:10:28.511Z,78041.00
2018-11-14T00:12:56.361Z,78043.00
2018-11-14T00:15:24.410Z,78042.00
2018-11-14T00:17:51.704Z,78045.00
2018-11-14T00:20:18.569Z,78045.00
2018-11-14T00:22:47.487Z,78050.01
2018-11-14T00:25:15.329Z,78057.02
2018-11-14T00:27:44.570Z,78055.02
2018-11-14T00:30:17.948Z,78063.02
2018-11-14T00:32:47.884Z,78058.02
2018-11-14T00:35:16.920Z,78054.02
2018-11-14T00:37:47.342Z,78054.02
2018-11-14T00:40:21.105Z,78051.01
2018-11-14T00:42:50.826Z,78053.02
2018-11-14T00:45:21.159Z,78060.02
2018-11-14T00:47:58.572Z,78068.03
2018-11-14T00:50:30.116Z,78062.02
2018-11-14T00:52:57.008Z,78064.02
2018-11-14T00:55:26.757Z,78062.02
2018-11-14T00:57:53.628Z,78064.02
2018-11-14T01:00:23.629Z,78067.03
2018-11-14T01:02:51.265Z,78072.03
2018-11-14T01:05:18.805Z,78070.03
2018-11-14T01:07:45.698Z,78072.03
2018-11-14T01:10:15.055Z,78060.02
2018-11-14T01:12:42.227Z,78063.02
2018-11-14T01:15:10.883Z,78056.02
2018-11-14T01:17:40.132Z,78053.02
2018-11-14T01:20:13.642Z,78056.02
2018-11-14T01:22:50.696Z,78059.02
2018-11-14T01:25:20.628Z,78062.02
2018-11-14T01:27:51.793Z,78057.02
2018-11-14T01:30:24.333Z,78064.02
2018-11-14T01:32:53.949Z,78066.03
2018-11-14T01:35:28.007Z,78060.02
2018-11-14T01:37:58.655Z,78060.02
2018-11-14T01:40:27.395Z,78062.02
2018-11-14T01:42:59.616Z,78062.02
2018-11-14T01:48:17.728Z,78067.03
2018-11-14T01:50:47.514Z,78069.03
2018-11-14T01:53:15.350Z,78071.03
2018-11-14T01:55:42.192Z,78078.05
2018-11-14T01:58:09.030Z,78077.05
2018-11-14T02:00:35.804Z,78074.04
2018-11-14T02:03:02.672Z,78075.04
2018-11-14T02:05:29.518Z,78076.04
2018-11-14T02:07:56.356Z,78073.03
2018-11-14T02:10:24.783Z,78066.03
2018-11-14T02:12:55.456Z,78072.03
2018-11-14T02:15:24.418Z,78075.04
2018-11-14T02:17:52.615Z,78073.03
2018-11-14T02:20:20.053Z,78075.04
2018-11-14T02:22:48.890Z,78076.04
2018-11-14T02:25:17.481Z,78077.05
2018-11-14T02:27:48.077Z,78077.05
2018-11-14T02:30:17.683Z,78078.05
2018-11-14T02:32:47.088Z,78081.05
2018-11-14T02:35:18.230Z,78073.03
2018-11-14T02:37:48.115Z,78084.05
2018-11-14T02:40:17.469Z,78092.06
2018-11-14T02:42:46.109Z,78088.05
2018-11-14T02:45:18.985Z,78087.05
2018-11-14T02:47:46.794Z,78086.05
2018-11-14T02:50:14.796Z,78087.05
2018-11-14T02:52:42.440Z,78083.05
2018-11-14T02:55:10.063Z,78080.05
2018-11-14T02:57:36.928Z,78081.05
2018-11-14T03:00:03.943Z,78089.05
2018-11-14T03:02:33.889Z,78086.05
2018-11-14T03:05:00.729Z,78084.05
2018-11-14T03:07:29.120Z,78088.05
2018-11-14T03:09:56.761Z,78090.05
2018-11-14T03:12:24.498Z,78093.06
2018-11-14T03:14:57.446Z,78093.06
2018-11-14T03:20:13.856Z,78093.06
2018-11-14T03:22:46.243Z,78098.06
2018-11-14T03:25:23.739Z,78102.07
2018-11-14T03:27:51.525Z,78104.07
2018-11-14T03:30:18.595Z,78100.06
2018-11-14T03:32:47.324Z,78098.06
2018-11-14T03:35:15.397Z,78108.08
2018-11-14T03:37:42.234Z,78107.08
2018-11-14T03:40:10.417Z,78112.08
2018-11-14T03:42:38.153Z,78112.08
2018-11-14T03:45:05.575Z,78114.08
2018-11-14T03:47:34.181Z,78128.09
2018-11-14T03:50:02.887Z,78128.09
2018-11-14T03:52:31.064Z,78123.09
2018-11-14T03:55:00.159Z,78118.09
2018-11-14T03:57:26.988Z,78118.09
2018-11-14T03:59:59.430Z,78121.09
2018-11-14T04:02:26.959Z,78116.09
2018-11-14T04:04:56.097Z,78124.09
2018-11-14T04:07:24.790Z,78120.09
2018-11-14T04:09:56.508Z,78120.09
2018-11-14T04:12:29.274Z,78117.09
2018-11-14T04:14:59.103Z,78114.08
2018-11-14T04:17:27.917Z,78105.08
2018-11-14T04:19:54.764Z,78099.06
2018-11-14T04:22:22.423Z,78102.07
2018-11-14T04:24:50.141Z,78105.08
2018-11-14T04:27:17.984Z,78111.08
2018-11-14T04:29:45.764Z,78110.08
2018-11-14T04:32:14.854Z,78109.08
2018-11-14T04:34:42.667Z,78106.08
2018-11-14T04:37:09.511Z,78104.07
2018-11-14T04:39:37.287Z,78102.07
2018-11-14T04:42:05.152Z,78111.08
2018-11-14T04:44:32.919Z,78114.08
2018-11-14T04:47:00.744Z,78114.08
2018-11-14T04:49:28.529Z,78108.08
2018-11-14T04:51:57.288Z,78109.08
2018-11-14T04:54:24.944Z,78101.07
2018-11-14T04:56:52.895Z,78098.06
2018-11-14T04:59:29.300Z,78098.06
2018-11-14T05:01:57.946Z,78092.06
2018-11-14T05:04:25.943Z,78094.06
2018-11-14T05:06:53.697Z,78102.07
2018-11-14T05:09:21.440Z,78101.07
2018-11-14T05:11:49.247Z,78099.06
2018-11-14T05:14:16.866Z,78102.07
2018-11-14T05:16:45.859Z,78109.08
2018-11-14T05:19:14.409Z,78113.08
2018-11-14T05:21:41.286Z,78118.09
2018-11-14T05:24:09.172Z,78117.09
2018-11-14T05:26:35.993Z,78120.09
2018-11-14T05:29:02.831Z,78120.09
2018-11-14T05:31:30.477Z,78121.09
2018-11-14T05:33:58.324Z,78125.09
2018-11-14T05:36:25.180Z,78123.09
2018-11-14T05:38:52.921Z,78133.11
2018-11-14T05:41:20.550Z,78132.11
2018-11-14T05:43:48.451Z,78126.09
2018-11-14T05:46:16.081Z,78132.11
2018-11-14T05:48:43.643Z,78134.11
2018-11-14T05:51:11.409Z,78135.11
2018-11-14T05:53:38.275Z,78140.11
2018-11-14T05:56:06.040Z,78141.11
2018-11-14T05:58:33.954Z,78139.11
2018-11-14T06:01:00.794Z,78134.11
2018-11-14T06:03:28.638Z,78134.11
2018-11-14T06:05:55.406Z,78132.11
2018-11-14T06:08:23.201Z,78136.11
2018-11-14T06:10:50.029Z,78136.11
2018-11-14T06:13:16.861Z,78140.11
2018-11-14T06:15:44.463Z,78139.11
2018-11-14T06:18:11.287Z,78143.12
2018-11-14T06:20:38.107Z,78145.12
2018-11-14T06:23:05.100Z,78146.13
2018-11-14T06:25:33.275Z,78149.13
2018-11-14T06:28:01.209Z,78146.13
2018-11-14T06:30:28.144Z,78151.13
2018-11-14T06:32:56.441Z,78144.12
2018-11-14T06:35:23.504Z,78145.12
2018-11-14T06:37:51.189Z,78145.12
2018-11-14T06:40:19.086Z,78154.13
2018-11-14T06:42:46.832Z,78155.13
2018-11-14T06:45:16.513Z,78160.14
2018-11-14T06:47:44.643Z,78162.14
2018-11-14T06:50:14.049Z,78153.13
2018-11-14T06:52:42.390Z,78155.13
2018-11-14T06:55:10.339Z,78158.13
2018-11-14T06:57:39.130Z,78163.14
2018-11-14T07:00:07.974Z,78156.13
2018-11-14T07:02:38.337Z,78155.13
2018-11-14T07:05:03.308Z,78161.14
2018-11-14T07:07:31.228Z,78161.14
2018-11-14T07:09:59.076Z,78162.14
2018-11-14T07:12:25.906Z,78165.14
2018-11-14T07:14:53.780Z,78166.14
2018-11-14T07:17:20.614Z,78164.14
2018-11-14T07:19:48.438Z,78165.14
2018-11-14T07:22:16.122Z,78172.16
2018-11-14T07:24:43.770Z,78174.16
2018-11-14T07:27:11.488Z,78176.16
2018-11-14T07:29:39.166Z,78168.15
2018-11-14T07:32:06.097Z,78166.14
2018-11-14T07:34:33.730Z,78168.15
2018-11-14T07:37:00.627Z,78167.15
2018-11-14T07:39:28.254Z,78176.16
2018-11-14T07:41:55.891Z,78180.16
2018-11-14T07:44:22.727Z,78179.16
2018-11-14T07:46:50.609Z,78179.16
2018-11-14T07:49:18.266Z,78183.16
2018-11-14T07:51:46.031Z,78189.17
2018-11-14T07:54:14.731Z,78189.17
2018-11-14T07:56:42.494Z,78189.17
2018-11-14T07:59:10.349Z,78196.18
2018-11-14T08:01:38.037Z,78193.17
2018-11-14T08:04:04.920Z,78196.18
2018-11-14T08:06:31.751Z,78195.18
2018-11-14T08:08:59.605Z,78196.18
2018-11-14T08:11:27.361Z,78190.17
2018-11-14T08:13:55.001Z,78194.18
2018-11-14T08:16:22.966Z,78203.19
2018-11-14T08:18:49.962Z,78203.19
2018-11-14T08:21:16.720Z,78203.19
2018-11-14T08:23:44.261Z,78199.19
2018-11-14T08:26:11.096Z,78204.19
2018-11-14T08:28:37.916Z,78200.19
2018-11-14T08:31:04.799Z,78198.19
2018-11-14T08:33:31.627Z,78198.19
2018-11-14T08:36:05.353Z,78206.19
2018-11-14T08:38:32.224Z,78200.19
2018-11-14T08:40:58.992Z,78203.19
2018-11-14T08:43:25.945Z,78204.19
2018-11-14T08:45:52.768Z,78208.20
2018-11-14T08:48:19.645Z,78207.20
2018-11-14T08:50:46.492Z,78211.20
2018-11-14T08:53:14.172Z,78215.20
2018-11-14T08:55:40.984Z,78222.21
2018-11-14T08:58:09.874Z,78222.21
2018-11-14T09:00:36.690Z,78213.20
2018-11-14T09:03:03.583Z,78213.20
2018-11-14T09:05:30.392Z,78213.20
2018-11-14T09:07:57.167Z,78216.20
2018-11-14T09:10:26.052Z,78218.20
2018-11-14T09:12:53.932Z,78212.20
2018-11-14T09:15:23.009Z,78219.20
2018-11-14T09:17:50.944Z,78225.22
2018-11-14T09:20:20.634Z,78229.22
2018-11-14T09:22:48.378Z,78220.20
2018-11-14T09:25:18.145Z,78231.22
2018-11-14T09:27:45.912Z,78231.22
2018-11-14T09:30:14.500Z,78226.22
2018-11-14T09:32:42.102Z,78236.23
2018-11-14T09:35:11.593Z,78236.23
2018-11-14T09:37:39.615Z,78233.22
2018-11-14T09:40:08.069Z,78222.21
2018-11-14T09:42:36.492Z,78227.22
2018-11-14T09:45:03.738Z,78223.21
2018-11-14T09:47:31.572Z,78221.21
2018-11-14T09:49:59.432Z,78220.20
2018-11-14T09:52:26.339Z,78219.20
2018-11-14T09:54:53.288Z,78220.20
2018-11-14T09:57:20.277Z,78221.21
2018-11-14T09:59:48.080Z,78214.20
2018-11-14T10:02:15.779Z,78214.20
2018-11-14T10:04:42.647Z,78216.20
2018-11-14T10:07:10.439Z,78216.20
2018-11-14T10:09:38.287Z,78213.20
2018-11-14T10:12:05.183Z,78204.19
2018-11-14T10:14:32.008Z,78203.19
2018-11-14T10:16:58.872Z,78206.19
2018-11-14T10:19:25.704Z,78208.20
2018-11-14T10:21:52.577Z,78204.19
2018-11-14T10:24:20.471Z,78208.20
2018-11-14T10:26:47.344Z,78206.19
2018-11-14T10:29:15.243Z,78210.20
2018-11-14T10:31:42.162Z,78209.20
2018-11-14T10:34:09.030Z,78214.20
2018-11-14T10:36:35.865Z,78213.20
2018-11-14T10:39:02.952Z,78221.21
2018-11-14T10:41:30.770Z,78216.20
2018-11-14T10:43:57.742Z,78214.20
2018-11-14T10:46:24.578Z,78225.22
2018-11-14T10:48:51.402Z,78222.21
2018-11-14T10:51:19.084Z,78219.20
2018-11-14T10:53:46.022Z,78225.22
2018-11-14T10:56:12.885Z,78223.21
2018-11-14T10:58:40.813Z,78225.22
2018-11-14T11:01:14.238Z,78227.22
2018-11-14T11:03:47.556Z,78225.22
2018-11-14T11:06:33.731Z,78227.22
2018-11-14T11:09:06.255Z,78225.22
2018-11-14T11:11:38.873Z,78223.21
2018-11-14T11:14:11.465Z,78223.21
2018-11-14T11:16:44.114Z,78225.22
2018-11-14T11:19:11.034Z,78227.22
2018-11-14T11:21:38.686Z,78219.20
2018-11-14T11:24:05.545Z,78218.20
2018-11-14T11:26:32.383Z,78216.20
2018-11-14T11:28:59.162Z,78205.19
2018-11-14T11:31:26.062Z,78207.20
2018-11-14T11:33:53.773Z,78207.20
2018-11-14T11:36:21.437Z,78208.20
2018-11-14T11:38:49.188Z,78206.19
2018-11-14T11:41:17.007Z,78206.19
2018-11-14T11:43:45.738Z,78206.19
2018-11-14T11:46:12.611Z,78209.20
2018-11-14T11:48:40.262Z,78205.19
2018-11-14T11:51:08.153Z,78208.20
2018-11-14T11:53:34.987Z,78198.19
2018-11-14T11:56:02.782Z,78196.18
2018-11-14T11:58:30.585Z,78203.19
2018-11-14T12:00:58.402Z,78209.20
2018-11-14T12:03:26.030Z,78204.19
2018-11-14T12:05:52.905Z,78214.20
2018-11-14T12:08:20.636Z,78217.20
2018-11-14T12:10:48.413Z,78212.20
2018-11-14T12:13:16.279Z,78212.20
2018-11-14T12:15:44.230Z,78210.20
2018-11-14T12:18:11.951Z,78207.20
2018-11-14T12:20:39.771Z,78198.19
2018-11-14T12:23:06.673Z,78205.19
2018-11-14T12:25:34.477Z,78206.19
2018-11-14T12:28:02.227Z,78200.19
2018-11-14T12:30:29.097Z,78199.19
2018-11-14T12:32:56.717Z,78192.17
2018-11-14T12:35:23.607Z,78186.17
2018-11-14T12:37:51.432Z,78186.17
2018-11-14T12:40:18.340Z,78180.16
2018-11-14T12:42:46.044Z,78175.16
2018-11-14T12:45:15.177Z,78180.16
2018-11-14T12:47:43.969Z,78175.16
2018-11-14T12:50:12.768Z,78169.15
2018-11-14T12:52:40.934Z,78172.16
2018-11-14T12:55:10.302Z,78174.16
2018-11-14T12:57:37.138Z,78178.16
2018-11-14T13:00:05.658Z,78172.16
2018-11-14T13:02:33.498Z,78172.16
2018-11-14T13:05:01.201Z,78178.16
2018-11-14T13:07:29.354Z,78176.16
2018-11-14T13:09:57.155Z,78176.16
2018-11-14T13:12:24.904Z,78171.16
2018-11-14T13:14:53.057Z,78175.16
2018-11-14T13:17:19.914Z,78176.16
2018-11-14T13:19:47.768Z,78174.16
2018-11-14T13:22:17.178Z,78175.16
2018-11-14T13:24:44.924Z,78172.16
2018-11-14T13:27:12.594Z,78170.16
2018-11-14T13:29:40.403Z,78176.16
2018-11-14T13:32:07.273Z,78179.16
2018-11-14T13:34:35.083Z,78177.16
2018-11-14T13:37:02.936Z,78170.16
2018-11-14T13:39:30.773Z,78180.16
2018-11-14T13:41:58.640Z,78181.16
2018-11-14T13:44:26.357Z,78175.16
2018-11-14T13:46:54.222Z,78178.16
2018-11-14T13:49:21.185Z,78172.16
2018-11-14T13:51:49.087Z,78173.16
2018-11-14T13:54:16.988Z,78176.16
2018-11-14T13:56:45.905Z,78174.16
2018-11-14T13:59:14.530Z,78176.16
2018-11-14T14:01:41.348Z,78175.16
2018-11-14T14:04:09.139Z,78170.16
2018-11-14T14:06:36.776Z,78169.15
2018-11-14T14:09:06.309Z,78170.16
2018-11-14T14:11:33.138Z,78174.16
2018-11-14T14:14:06.529Z,78184.17
2018-11-14T14:16:34.298Z,78180.16
2018-11-14T14:19:02.000Z,78177.16
2018-11-14T14:21:29.728Z,78180.16
2018-11-14T14:23:57.371Z,78178.16
2018-11-14T14:26:25.380Z,78182.16
2018-11-14T14:28:53.474Z,78183.16
2018-11-14T14:31:21.130Z,78176.16
2018-11-14T14:33:48.842Z,78178.16
2018-11-14T14:36:16.623Z,78184.17
2018-11-14T14:38:44.993Z,78181.16
2018-11-14T14:41:12.749Z,78182.16
2018-11-14T14:43:39.595Z,78183.16
2018-11-14T14:46:07.257Z,78187.17
2018-11-14T14:48:35.009Z,78186.17
2018-11-14T14:51:01.873Z,78191.17
2018-11-14T14:53:28.702Z,78199.19
2018-11-14T14:55:56.446Z,78190.17
2018-11-14T14:58:24.165Z,78189.17
2018-11-14T15:00:50.994Z,78187.17
2018-11-14T15:03:17.839Z,78190.17
2018-11-14T15:05:45.914Z,78180.16
2018-11-14T15:08:12.739Z,78189.17
2018-11-14T15:10:39.553Z,78189.17
2018-11-14T15:13:06.398Z,78188.17
2018-11-14T15:15:33.289Z,78183.16
2018-11-14T15:18:00.913Z,78186.17
2018-11-14T15:20:27.771Z,78182.16
2018-11-14T15:22:54.718Z,78178.16
2018-11-14T15:25:22.570Z,78180.16
2018-11-14T15:27:49.973Z,78179.16
2018-11-14T15:30:19.057Z,78182.16
2018-11-14T15:32:45.861Z,78181.16
2018-11-14T15:35:14.848Z,78190.17
2018-11-14T15:37:41.667Z,78189.17
2018-11-14T15:40:10.866Z,78192.17
2018-11-14T15:42:38.929Z,78190.17
2018-11-14T15:45:07.547Z,78190.17
2018-11-14T15:47:36.266Z,78198.19
2018-11-14T15:50:03.134Z,78197.19
2018-11-14T15:52:30.917Z,78203.19
2018-11-14T15:54:58.741Z,78209.20
2018-11-14T15:57:26.524Z,78210.20
2018-11-14T15:59:54.283Z,78208.20
2018-11-14T16:02:21.954Z,78207.20
2018-11-14T16:04:48.880Z,78209.20
2018-11-14T16:07:15.785Z,78210.20
2018-11-14T16:09:42.636Z,78208.20
2018-11-14T16:12:09.569Z,78202.19
2018-11-14T16:14:36.448Z,78206.19
2018-11-14T16:17:04.295Z,78200.19
2018-11-14T16:19:32.102Z,78202.19
2018-11-14T16:21:59.935Z,78199.19
2018-11-14T16:24:27.703Z,78206.19
2018-11-14T16:29:40.096Z,78207.20
2018-11-14T16:32:06.886Z,78210.20
2018-11-14T16:34:33.700Z,78211.20
2018-11-14T16:37:00.534Z,78202.19
2018-11-14T16:39:28.284Z,78204.19
2018-11-14T16:41:55.905Z,78205.19
2018-11-14T16:44:22.921Z,78204.19
2018-11-14T16:46:50.546Z,78206.19
2018-11-14T16:49:17.377Z,78216.20
2018-11-14T16:51:45.308Z,78209.20
2018-11-14T16:54:13.705Z,78210.20
2018-11-14T16:56:41.337Z,78211.20
2018-11-14T16:59:09.196Z,78212.20
2018-11-14T17:01:36.829Z,78212.20
2018-11-14T17:04:03.711Z,78210.20
2018-11-14T17:06:31.501Z,78212.20
2018-11-14T17:08:59.152Z,78214.20
2018-11-14T17:11:27.051Z,78209.20
2018-11-14T17:13:54.830Z,78210.20
2018-11-14T17:16:22.503Z,78207.20
2018-11-14T17:18:50.344Z,78214.20
2018-11-14T17:21:17.200Z,78210.20
2018-11-14T17:23:44.860Z,78211.20
2018-11-14T17:26:11.836Z,78206.19
2018-11-14T17:28:38.624Z,78212.20
2018-11-14T17:31:06.453Z,78210.20
2018-11-14T17:33:34.288Z,78209.20
2018-11-14T17:36:01.218Z,78211.20
2018-11-14T17:38:28.901Z,78214.20
2018-11-14T17:40:56.706Z,78217.20
2018-11-14T17:43:23.540Z,78214.20
2018-11-14T17:45:51.377Z,78218.20
2018-11-14T17:48:18.251Z,78214.20
2018-11-14T17:50:46.020Z,78216.20
2018-11-14T17:53:12.816Z,78212.20
2018-11-14T17:55:39.689Z,78212.20
2018-11-14T17:58:06.531Z,78211.20
2018-11-14T18:00:33.391Z,78207.20
2018-11-14T18:03:00.392Z,78210.20
2018-11-14T18:05:28.636Z,78205.19
2018-11-14T18:07:56.126Z,78216.20
2018-11-14T18:10:25.023Z,78212.20
2018-11-14T18:12:52.927Z,78213.20
2018-11-14T18:15:19.988Z,78210.20
2018-11-14T18:17:50.234Z,78208.20
2018-11-14T18:20:18.618Z,78212.20
2018-11-14T18:22:47.336Z,78210.20
2018-11-14T18:25:15.303Z,78206.19
2018-11-14T18:27:44.814Z,78207.20
2018-11-14T18:30:14.751Z,78211.20
2018-11-14T18:32:42.405Z,78212.20
2018-11-14T18:35:12.074Z,78214.20
2018-11-14T18:37:39.680Z,78218.20
2018-11-14T18:40:16.032Z,78213.20
2018-11-14T18:42:44.943Z,78214.20
2018-11-14T18:45:15.129Z,78214.20
2018-11-14T18:47:42.343Z,78215.20
2018-11-14T18:50:09.888Z,78221.21
2018-11-14T18:52:37.543Z,78226.22
2018-11-14T18:55:05.295Z,78230.22
2018-11-14T18:57:33.169Z,78230.22
2018-11-14T19:00:00.955Z,78230.22
2018-11-14T19:02:28.624Z,78235.23
2018-11-14T19:04:56.350Z,78240.23
2018-11-14T19:07:24.102Z,78246.23
2018-11-14T19:09:51.893Z,78244.23
2018-11-14T19:12:19.508Z,78239.23
2018-11-14T19:14:47.238Z,78241.23
2018-11-14T19:17:15.043Z,78243.23
2018-11-14T19:19:41.886Z,78247.24
2018-11-14T19:22:08.726Z,78242.23
2018-11-14T19:24:36.555Z,78241.23
2018-11-14T19:27:04.453Z,78239.23
2018-11-14T19:29:32.232Z,78240.23
2018-11-14T19:31:59.107Z,78236.23
2018-11-14T19:34:25.962Z,78242.23
2018-11-14T19:36:53.704Z,78248.24
2018-11-14T19:39:20.461Z,78242.23
2018-11-14T19:41:47.326Z,78239.23
2018-11-14T19:44:14.824Z,78237.23
2018-11-14T19:46:42.559Z,78246.23
2018-11-14T19:49:10.389Z,78250.25
2018-11-14T19:51:37.268Z,78249.24
2018-11-14T19:54:04.646Z,78247.24
2018-11-14T19:56:31.496Z,78240.23
2018-11-14T19:58:58.353Z,78238.23
2018-11-14T20:01:25.188Z,78237.23
2018-11-14T20:03:52.829Z,78235.23
2018-11-14T20:06:19.697Z,78232.22
2018-11-14T20:08:46.540Z,78234.23
2018-11-14T20:11:14.182Z,78238.23
2018-11-14T20:13:41.899Z,78236.23
2018-11-14T20:16:09.713Z,78235.23
2018-11-14T20:18:37.518Z,78238.23
2018-11-14T20:21:05.308Z,78235.23
2018-11-14T20:23:32.177Z,78236.23
2018-11-14T20:25:59.114Z,78236.23
2018-11-14T20:28:25.940Z,78238.23
2018-11-14T20:30:52.802Z,78242.23
2018-11-14T20:33:19.769Z,78244.23
2018-11-14T20:35:46.601Z,78245.23
2018-11-14T20:38:14.693Z,78244.23
2018-11-14T20:40:42.696Z,78246.23
2018-11-14T20:43:09.579Z,78250.25
2018-11-14T20:45:36.452Z,78247.24
2018-11-14T20:48:04.257Z,78246.23
2018-11-14T20:50:31.099Z,78253.25
2018-11-14T20:52:59.845Z,78246.23
2018-11-14T20:55:26.869Z,78259.26
2018-11-14T20:57:53.820Z,78251.25
2018-11-14T21:00:27.127Z,78258.25
2018-11-14T21:02:54.027Z,78254.25
2018-11-14T21:05:21.837Z,78252.25
2018-11-14T21:07:48.734Z,78249.24
2018-11-14T21:10:17.080Z,78241.23
2018-11-14T21:12:44.159Z,78240.23
2018-11-14T21:15:14.363Z,78243.23
2018-11-14T21:17:41.407Z,78252.25
2018-11-14T21:20:08.679Z,78259.26
2018-11-14T21:22:36.524Z,78259.26
2018-11-14T21:25:03.649Z,78261.27
2018-11-14T21:27:31.566Z,78260.26
2018-11-14T21:29:58.962Z,78260.26
2018-11-14T21:32:25.834Z,78248.24
2018-11-14T21:34:52.780Z,78253.25
2018-11-14T21:37:20.443Z,78260.26
2018-11-14T21:39:47.318Z,78264.27
2018-11-14T21:42:14.772Z,78262.27
2018-11-14T21:44:41.611Z,78264.27
2018-11-14T21:47:08.461Z,78259.26
2018-11-14T21:49:36.178Z,78256.25
2018-11-14T21:52:03.017Z,78261.27
2018-11-14T21:54:30.859Z,78261.27
2018-11-14T21:56:57.703Z,78258.25
2018-11-14T21:59:24.673Z,78263.27
2018-11-14T22:01:52.549Z,78260.26
2018-11-14T22:04:20.215Z,78265.27
2018-11-14T22:06:47.130Z,78262.27
2018-11-14T22:09:15.634Z,78262.27
2018-11-14T22:11:42.540Z,78252.25
2018-11-14T22:14:09.967Z,78246.23
2018-11-14T22:16:36.811Z,78246.23
2018-11-14T22:19:04.031Z,78253.25
2018-11-14T22:21:32.406Z,78263.27
2018-11-14T22:24:00.160Z,78247.24
2018-11-14T22:26:27.005Z,78246.23
2018-11-14T22:28:53.864Z,78246.23
2018-11-14T22:31:21.710Z,78246.23
2018-11-14T22:33:48.579Z,78242.23
2018-11-14T22:36:16.388Z,78248.24
2018-11-14T22:38:44.186Z,78248.24
2018-11-14T22:41:11.014Z,78248.24
2018-11-14T22:43:38.796Z,78249.24
2018-11-14T22:46:05.566Z,78254.25
2018-11-14T22:48:33.253Z,78254.25
2018-11-14T22:51:00.085Z,78270.27
2018-11-14T22:53:27.740Z,78264.27
2018-11-14T22:55:55.401Z,78256.25
2018-11-14T22:58:23.050Z,78259.26
2018-11-14T23:00:49.908Z,78268.27
2018-11-14T23:03:16.735Z,78271.27
2018-11-14T23:05:44.249Z,78266.27
2018-11-14T23:08:11.116Z,78266.27
2018-11-14T23:10:37.960Z,78268.27
2018-11-14T23:13:04.803Z,78269.27
2018-11-14T23:15:31.706Z,78276.28
2018-11-14T23:17:58.525Z,78280.28
2018-11-14T23:20:25.340Z,78271.27
2018-11-14T23:22:52.757Z,78271.27
2018-11-14T23:25:19.996Z,78274.28
2018-11-14T23:27:48.972Z,78270.27
2018-11-14T23:30:17.790Z,78269.27
2018-11-14T23:32:46.637Z,78272.27
2018-11-14T23:35:32.232Z,78271.27
2018-11-14T23:38:05.116Z,78264.27
2018-11-14T23:40:31.994Z,78262.27
2018-11-14T23:42:58.862Z,78259.26
2018-11-14T23:45:26.440Z,78260.26
2018-11-14T23:47:53.292Z,78251.25
2018-11-14T23:50:21.279Z,78250.25
2018-11-14T23:52:49.159Z,78263.27
2018-11-14T23:55:17.628Z,78252.25
2018-11-14T23:57:45.089Z,78254.25
